sensor_id;sensor_type;location;lat;lon;timestamp;pressure;altitude;pressure_sealevel;temperature;humidity
64835;BME280;51293;59.296;18.006;2022-11-21T00:00:46;100225.19;;;-1.12;100.00
64835;BME280;51293;59.296;18.006;2022-11-21T00:03:12;100218.38;;;-1.06;100.00
64835;BME280;51293;59.296;18.006;2022-11-21T00:05:39;100223.69;;;-1.06;100.00
64835;BME280;51293;59.296;18.006;2022-11-21T00:08:06;100229.16;;;-1.16;100.00
64835;BME280;51293;59.296;18.006;2022-11-21T00:10:32;100228.66;;;-1.11;100.00
64835;BME280;51293;59.296;18.006;2022-11-21T00:12:57;100236.81;;;-1.13;100.00
64835;BME280;51293;59.296;18.006;2022-11-21T00:15:24;100231.81;;;-1.16;100.00
64835;BME280;51293;59.296;18.006;2022-11-21T00:17:50;100232.16;;;-1.19;100.00
64835;BME280;51293;59.296;18.006;2022-11-21T00:20:18;100231.66;;;-1.23;100.00
64835;BME280;51293;59.296;18.006;2022-11-21T00:22:43;100232.50;;;-1.30;100.00
64835;BME280;51293;59.296;18.006;2022-11-21T00:25:09;100232.97;;;-1.27;100.00
64835;BME280;51293;59.296;18.006;2022-11-21T00:27:34;100228.31;;;-1.33;100.00
64835;BME280;51293;59.296;18.006;2022-11-21T00:30:00;100239.28;;;-1.28;100.00
64835;BME280;51293;59.296;18.006;2022-11-21T00:32:25;100234.50;;;-1.32;100.00
64835;BME280;51293;59.296;18.006;2022-11-21T00:34:51;100234.16;;;-1.21;100.00
64835;BME280;51293;59.296;18.006;2022-11-21T00:37:16;100227.19;;;-1.30;100.00
64835;BME280;51293;59.296;18.006;2022-11-21T00:39:42;100234.50;;;-1.32;100.00
64835;BME280;51293;59.296;18.006;2022-11-21T00:42:07;100229.16;;;-1.24;100.00
64835;BME280;51293;59.296;18.006;2022-11-21T00:44:32;100242.44;;;-1.24;100.00
64835;BME280;51293;59.296;18.006;2022-11-21T00:46:58;100235.63;;;-1.27;100.00
64835;BME280;51293;59.296;18.006;2022-11-21T00:49:23;100243.94;;;-1.30;100.00
64835;BME280;51293;59.296;18.006;2022-11-21T00:51:48;100236.81;;;-1.29;100.00
64835;BME280;51293;59.296;18.006;2022-11-21T00:54:14;100240.47;;;-1.22;100.00
64835;BME280;51293;59.296;18.006;2022-11-21T00:56:39;100238.28;;;-1.19;100.00
64835;BME280;51293;59.296;18.006;2022-11-21T00:59:05;100236.97;;;-1.23;100.00
64835;BME280;51293;59.296;18.006;2022-11-21T01:01:30;100250.59;;;-1.18;100.00
64835;BME280;51293;59.296;18.006;2022-11-21T01:03:59;100238.63;;;-1.22;100.00
64835;BME280;51293;59.296;18.006;2022-11-21T01:06:24;100242.44;;;-1.24;100.00
64835;BME280;51293;59.296;18.006;2022-11-21T01:08:50;100236.81;;;-1.21;100.00
64835;BME280;51293;59.296;18.006;2022-11-21T01:11:18;100248.28;;;-1.13;100.00
64835;BME280;51293;59.296;18.006;2022-11-21T01:13:45;100251.59;;;-1.19;100.00
64835;BME280;51293;59.296;18.006;2022-11-21T01:16:22;100233.81;;;-1.26;100.00
64835;BME280;51293;59.296;18.006;2022-11-21T01:18:49;100236.16;;;-1.23;100.00
64835;BME280;51293;59.296;18.006;2022-11-21T01:23:41;100241.59;;;-1.17;100.00
64835;BME280;51293;59.296;18.006;2022-11-21T01:26:10;100238.28;;;-1.10;100.00
64835;BME280;51293;59.296;18.006;2022-11-21T01:28:36;100237.28;;;-1.01;100.00
64835;BME280;51293;59.296;18.006;2022-11-21T01:31:05;100249.25;;;-1.05;99.45
64835;BME280;51293;59.296;18.006;2022-11-21T01:33:31;100253.94;;;-1.16;98.91
64835;BME280;51293;59.296;18.006;2022-11-21T01:36:05;100254.75;;;-1.15;98.22
64835;BME280;51293;59.296;18.006;2022-11-21T01:38:32;100260.72;;;-1.13;98.11
64835;BME280;51293;59.296;18.006;2022-11-21T01:40:57;100251.94;;;-1.22;98.53
64835;BME280;51293;59.296;18.006;2022-11-21T01:43:22;100254.59;;;-1.22;98.33
64835;BME280;51293;59.296;18.006;2022-11-21T01:45:59;100250.94;;;-1.21;96.89
64835;BME280;51293;59.296;18.006;2022-11-21T01:49:03;100256.25;;;-1.13;96.58
64835;BME280;51293;59.296;18.006;2022-11-21T01:51:34;100259.72;;;-1.28;96.39
64835;BME280;51293;59.296;18.006;2022-11-21T01:56:33;100256.72;;;-1.17;97.04
64835;BME280;51293;59.296;18.006;2022-11-21T01:59:02;100260.38;;;-1.26;96.71
64835;BME280;51293;59.296;18.006;2022-11-21T02:01:29;100270.00;;;-1.25;98.00
64835;BME280;51293;59.296;18.006;2022-11-21T02:03:55;100276.16;;;-1.25;96.27
64835;BME280;51293;59.296;18.006;2022-11-21T02:06:23;100280.16;;;-1.21;96.57
64835;BME280;51293;59.296;18.006;2022-11-21T02:08:49;100280.16;;;-1.29;96.31
64835;BME280;51293;59.296;18.006;2022-11-21T02:11:20;100290.13;;;-1.31;97.56
64835;BME280;51293;59.296;18.006;2022-11-21T02:13:47;100300.75;;;-1.31;97.37
64835;BME280;51293;59.296;18.006;2022-11-21T02:16:13;100289.44;;;-1.33;98.24
64835;BME280;51293;59.296;18.006;2022-11-21T02:18:38;100291.78;;;-1.30;98.44
64835;BME280;51293;59.296;18.006;2022-11-21T02:21:51;100291.44;;;-1.19;97.18
64835;BME280;51293;59.296;18.006;2022-11-21T02:24:32;100291.44;;;-1.19;97.58
64835;BME280;51293;59.296;18.006;2022-11-21T02:27:02;100288.63;;;-1.25;97.65
64835;BME280;51293;59.296;18.006;2022-11-21T02:29:28;100291.28;;;-1.25;96.85
64835;BME280;51293;59.296;18.006;2022-11-21T02:31:54;100299.13;;;-1.16;96.96
64835;BME280;51293;59.296;18.006;2022-11-21T02:34:23;100296.44;;;-1.24;97.33
64835;BME280;51293;59.296;18.006;2022-11-21T02:36:48;100288.31;;;-1.14;96.86
64835;BME280;51293;59.296;18.006;2022-11-21T02:39:34;100296.28;;;-1.22;97.03
64835;BME280;51293;59.296;18.006;2022-11-21T02:42:13;100298.44;;;-1.09;96.27
64835;BME280;51293;59.296;18.006;2022-11-21T02:44:55;100306.75;;;-1.13;95.81
64835;BME280;51293;59.296;18.006;2022-11-21T02:47:22;100301.44;;;-1.13;96.58
64835;BME280;51293;59.296;18.006;2022-11-21T02:49:54;100308.22;;;-1.18;95.26
64835;BME280;51293;59.296;18.006;2022-11-21T02:52:21;100307.09;;;-1.07;96.92
64835;BME280;51293;59.296;18.006;2022-11-21T02:54:46;100307.41;;;-1.19;97.31
64835;BME280;51293;59.296;18.006;2022-11-21T02:57:11;100310.06;;;-1.19;98.15
64835;BME280;51293;59.296;18.006;2022-11-21T02:59:37;100310.38;;;-1.22;97.91
64835;BME280;51293;59.296;18.006;2022-11-21T03:02:02;100303.41;;;-1.23;98.04
64835;BME280;51293;59.296;18.006;2022-11-21T03:04:27;100314.72;;;-1.21;98.33
64835;BME280;51293;59.296;18.006;2022-11-21T03:06:53;100308.88;;;-1.24;99.14
64835;BME280;51293;59.296;18.006;2022-11-21T03:09:18;100311.41;;;-1.15;98.66
64835;BME280;51293;59.296;18.006;2022-11-21T03:11:44;100313.34;;;-1.25;99.17
64835;BME280;51293;59.296;18.006;2022-11-21T03:14:09;100311.06;;;-1.20;99.42
64835;BME280;51293;59.296;18.006;2022-11-21T03:16:35;100314.06;;;-1.23;99.53
64835;BME280;51293;59.296;18.006;2022-11-21T03:19:00;100309.22;;;-1.19;98.77
64835;BME280;51293;59.296;18.006;2022-11-21T03:21:26;100311.69;;;-1.26;98.25
64835;BME280;51293;59.296;18.006;2022-11-21T03:23:51;100315.88;;;-1.23;98.97
64835;BME280;51293;59.296;18.006;2022-11-21T03:26:17;100317.19;;;-1.27;99.39
64835;BME280;51293;59.296;18.006;2022-11-21T03:28:42;100319.84;;;-1.27;99.82
64835;BME280;51293;59.296;18.006;2022-11-21T03:31:07;100326.81;;;-1.18;98.89
64835;BME280;51293;59.296;18.006;2022-11-21T03:33:33;100329.00;;;-1.14;98.28
64835;BME280;51293;59.296;18.006;2022-11-21T03:35:58;100322.84;;;-1.22;97.98
64835;BME280;51293;59.296;18.006;2022-11-21T03:38:23;100321.50;;;-1.26;98.62
64835;BME280;51293;59.296;18.006;2022-11-21T03:40:49;100330.13;;;-1.24;99.00
64835;BME280;51293;59.296;18.006;2022-11-21T03:43:14;100319.50;;;-1.24;99.83
64835;BME280;51293;59.296;18.006;2022-11-21T03:45:40;100320.84;;;-1.28;99.59
64835;BME280;51293;59.296;18.006;2022-11-21T03:48:05;100331.31;;;-1.27;100.00
64835;BME280;51293;59.296;18.006;2022-11-21T03:50:31;100340.75;;;-1.24;98.83
64835;BME280;51293;59.296;18.006;2022-11-21T03:52:56;100335.97;;;-1.21;98.65
64835;BME280;51293;59.296;18.006;2022-11-21T03:55:21;100333.13;;;-1.27;98.76
64835;BME280;51293;59.296;18.006;2022-11-21T03:57:47;100337.63;;;-1.20;98.59
64835;BME280;51293;59.296;18.006;2022-11-21T04:00:13;100349.59;;;-1.24;98.39
64835;BME280;51293;59.296;18.006;2022-11-21T04:02:38;100346.78;;;-1.22;98.00
64835;BME280;51293;59.296;18.006;2022-11-21T04:05:04;100355.91;;;-1.08;98.68
64835;BME280;51293;59.296;18.006;2022-11-21T04:07:29;100356.41;;;-1.21;98.02
64835;BME280;51293;59.296;18.006;2022-11-21T04:09:55;100351.56;;;-1.26;98.35
64835;BME280;51293;59.296;18.006;2022-11-21T04:12:20;100349.75;;;-1.17;98.28
64835;BME280;51293;59.296;18.006;2022-11-21T04:14:45;100356.41;;;-1.13;97.30
64835;BME280;51293;59.296;18.006;2022-11-21T04:17:11;100353.56;;;-1.20;95.40
64835;BME280;51293;59.296;18.006;2022-11-21T04:19:36;100344.44;;;-1.17;95.18
64835;BME280;51293;59.296;18.006;2022-11-21T04:22:01;100348.28;;;-1.11;95.18
64835;BME280;51293;59.296;18.006;2022-11-21T04:24:27;100346.94;;;-1.24;94.87
64835;BME280;51293;59.296;18.006;2022-11-21T04:26:55;100349.09;;;-1.11;95.22
64835;BME280;51293;59.296;18.006;2022-11-21T04:29:21;100345.94;;;-1.23;95.33
64835;BME280;51293;59.296;18.006;2022-11-21T04:31:46;100352.72;;;-1.28;95.27
64835;BME280;51293;59.296;18.006;2022-11-21T04:34:11;100353.38;;;-1.26;95.07
64835;BME280;51293;59.296;18.006;2022-11-21T04:36:37;100352.09;;;-1.14;93.17
64835;BME280;51293;59.296;18.006;2022-11-21T04:39:02;100350.09;;;-1.12;93.75
64835;BME280;51293;59.296;18.006;2022-11-21T04:41:28;100349.72;;;-1.25;93.47
64835;BME280;51293;59.296;18.006;2022-11-21T04:43:53;100347.25;;;-1.27;92.91
64835;BME280;51293;59.296;18.006;2022-11-21T04:46:19;100346.44;;;-1.19;90.75
64835;BME280;51293;59.296;18.006;2022-11-21T04:48:44;100344.63;;;-1.10;92.47
64835;BME280;51293;59.296;18.006;2022-11-21T04:51:09;100346.94;;;-1.24;91.44
64835;BME280;51293;59.296;18.006;2022-11-21T04:53:35;100339.28;;;-1.27;91.09
64835;BME280;51293;59.296;18.006;2022-11-21T04:56:04;100342.75;;;-1.26;92.51
64835;BME280;51293;59.296;18.006;2022-11-21T04:58:30;100350.41;;;-1.31;93.08
64835;BME280;51293;59.296;18.006;2022-11-21T05:00:55;100352.91;;;-1.30;94.16
64835;BME280;51293;59.296;18.006;2022-11-21T05:03:21;100348.72;;;-1.24;92.13
64835;BME280;51293;59.296;18.006;2022-11-21T05:05:46;100349.72;;;-1.25;92.88
64835;BME280;51293;59.296;18.006;2022-11-21T05:08:12;100357.41;;;-1.14;93.47
64835;BME280;51293;59.296;18.006;2022-11-21T05:10:37;100367.53;;;-1.18;91.95
64835;BME280;51293;59.296;18.006;2022-11-21T05:13:23;100358.41;;;-1.23;92.23
64835;BME280;51293;59.296;18.006;2022-11-21T05:15:55;100355.38;;;-1.28;92.97
64835;BME280;51293;59.296;18.006;2022-11-21T05:18:20;100360.53;;;-1.27;93.76
64835;BME280;51293;59.296;18.006;2022-11-21T05:20:45;100358.03;;;-1.28;94.50
64835;BME280;51293;59.296;18.006;2022-11-21T05:23:11;100359.38;;;-1.24;95.38
64835;BME280;51293;59.296;18.006;2022-11-21T05:25:36;100365.19;;;-1.29;95.79
64835;BME280;51293;59.296;18.006;2022-11-21T05:28:01;100361.16;;;-1.33;96.59
64835;BME280;51293;59.296;18.006;2022-11-21T05:30:27;100367.34;;;-1.32;96.39
64835;BME280;51293;59.296;18.006;2022-11-21T05:32:52;100365.19;;;-1.29;96.79
64835;BME280;51293;59.296;18.006;2022-11-21T05:35:18;100372.81;;;-1.26;97.20
64835;BME280;51293;59.296;18.006;2022-11-21T05:37:43;100361.03;;;-1.31;97.68
64835;BME280;51293;59.296;18.006;2022-11-21T05:40:09;100364.53;;;-1.31;98.24
64835;BME280;51293;59.296;18.006;2022-11-21T05:42:38;100365.66;;;-1.33;98.83
64835;BME280;51293;59.296;18.006;2022-11-21T05:45:22;100371.00;;;-1.25;98.13
64835;BME280;51293;59.296;18.006;2022-11-21T05:47:47;100364.69;;;-1.24;98.48
64835;BME280;51293;59.296;18.006;2022-11-21T05:50:13;100364.84;;;-1.26;98.61
64835;BME280;51293;59.296;18.006;2022-11-21T05:52:38;100365.69;;;-1.17;98.83
64835;BME280;51293;59.296;18.006;2022-11-21T05:55:04;100363.19;;;-1.19;99.04
64835;BME280;51293;59.296;18.006;2022-11-21T05:57:29;100368.03;;;-1.22;99.32
64835;BME280;51293;59.296;18.006;2022-11-21T05:59:55;100374.34;;;-1.23;99.25
64835;BME280;51293;59.296;18.006;2022-11-21T06:02:20;100373.66;;;-1.17;99.53
64835;BME280;51293;59.296;18.006;2022-11-21T06:05:04;100377.16;;;-1.17;99.62
64835;BME280;51293;59.296;18.006;2022-11-21T06:07:30;100383.47;;;-1.18;100.00
64835;BME280;51293;59.296;18.006;2022-11-21T06:09:55;100378.31;;;-1.19;100.00
64835;BME280;51293;59.296;18.006;2022-11-21T06:12:21;100387.66;;;-1.15;100.00
64835;BME280;51293;59.296;18.006;2022-11-21T06:14:46;100377.84;;;-1.15;100.00
64835;BME280;51293;59.296;18.006;2022-11-21T06:17:11;100391.16;;;-1.06;100.00
64835;BME280;51293;59.296;18.006;2022-11-21T06:19:37;100384.69;;;-0.96;100.00
64835;BME280;51293;59.296;18.006;2022-11-21T06:22:02;100383.31;;;-1.00;100.00
64835;BME280;51293;59.296;18.006;2022-11-21T06:24:27;100388.16;;;-0.95;100.00
64835;BME280;51293;59.296;18.006;2022-11-21T06:26:53;100394.97;;;-0.93;100.00
64835;BME280;51293;59.296;18.006;2022-11-21T06:29:18;100396.81;;;-0.93;100.00
64835;BME280;51293;59.296;18.006;2022-11-21T06:31:46;100394.66;;;-0.90;100.00
64835;BME280;51293;59.296;18.006;2022-11-21T06:34:11;100394.31;;;-1.03;100.00
64835;BME280;51293;59.296;18.006;2022-11-21T06:36:37;100393.00;;;-0.99;100.00
64835;BME280;51293;59.296;18.006;2022-11-21T06:39:02;100395.31;;;-0.96;100.00
64835;BME280;51293;59.296;18.006;2022-11-21T06:41:28;100411.09;;;-0.94;100.00
64835;BME280;51293;59.296;18.006;2022-11-21T06:43:59;100400.28;;;-1.01;100.00
64835;BME280;51293;59.296;18.006;2022-11-21T06:46:27;100401.47;;;-0.87;100.00
64835;BME280;51293;59.296;18.006;2022-11-21T06:48:53;100401.94;;;-1.00;100.00
64835;BME280;51293;59.296;18.006;2022-11-21T06:51:22;100396.97;;;-0.95;100.00
64835;BME280;51293;59.296;18.006;2022-11-21T06:53:56;100401.13;;;-0.92;100.00
64835;BME280;51293;59.296;18.006;2022-11-21T06:56:26;100395.16;;;-0.94;100.00
64835;BME280;51293;59.296;18.006;2022-11-21T06:58:52;100393.31;;;-0.94;100.00
64835;BME280;51293;59.296;18.006;2022-11-21T07:01:18;100392.66;;;-0.96;100.00
64835;BME280;51293;59.296;18.006;2022-11-21T07:03:43;100392.00;;;-0.98;100.00
64835;BME280;51293;59.296;18.006;2022-11-21T07:06:09;100400.13;;;-0.99;100.00
64835;BME280;51293;59.296;18.006;2022-11-21T07:08:35;100392.16;;;-0.99;100.00
64835;BME280;51293;59.296;18.006;2022-11-21T07:11:02;100390.63;;;-1.02;100.00
64835;BME280;51293;59.296;18.006;2022-11-21T07:13:28;100393.47;;;-1.03;100.00
64835;BME280;51293;59.296;18.006;2022-11-21T07:15:55;100386.34;;;-0.95;100.00
64835;BME280;51293;59.296;18.006;2022-11-21T07:18:25;100390.00;;;-0.96;100.00
64835;BME280;51293;59.296;18.006;2022-11-21T07:20:51;100384.84;;;-0.97;100.00
64835;BME280;51293;59.296;18.006;2022-11-21T07:23:16;100396.50;;;-0.90;100.00
64835;BME280;51293;59.296;18.006;2022-11-21T07:25:41;100404.97;;;-0.87;100.00
64835;BME280;51293;59.296;18.006;2022-11-21T07:28:07;100399.28;;;-0.92;100.00
64835;BME280;51293;59.296;18.006;2022-11-21T07:30:34;100403.78;;;-0.92;100.00
64835;BME280;51293;59.296;18.006;2022-11-21T07:33:01;100401.66;;;-0.80;100.00
64835;BME280;51293;59.296;18.006;2022-11-21T07:35:27;100402.94;;;-0.93;100.00
64835;BME280;51293;59.296;18.006;2022-11-21T07:37:53;100398.63;;;-0.94;100.00
64835;BME280;51293;59.296;18.006;2022-11-21T07:40:18;100411.75;;;-0.92;100.00
64835;BME280;51293;59.296;18.006;2022-11-21T07:42:45;100412.75;;;-1.01;100.00
64835;BME280;51293;59.296;18.006;2022-11-21T07:45:11;100412.06;;;-1.03;100.00
64835;BME280;51293;59.296;18.006;2022-11-21T07:47:36;100412.91;;;-1.03;100.00
64835;BME280;51293;59.296;18.006;2022-11-21T07:50:03;100414.41;;;-1.00;100.00
64835;BME280;51293;59.296;18.006;2022-11-21T07:52:28;100419.25;;;-0.88;100.00
64835;BME280;51293;59.296;18.006;2022-11-21T07:54:55;100421.06;;;-0.96;100.00
64835;BME280;51293;59.296;18.006;2022-11-21T07:57:21;100424.06;;;-0.91;100.00
64835;BME280;51293;59.296;18.006;2022-11-21T07:59:46;100429.72;;;-0.94;100.00
64835;BME280;51293;59.296;18.006;2022-11-21T08:02:22;100438.03;;;-0.89;100.00
64835;BME280;51293;59.296;18.006;2022-11-21T08:04:48;100439.06;;;-0.82;100.00
64835;BME280;51293;59.296;18.006;2022-11-21T08:07:15;100444.69;;;-0.85;100.00
64835;BME280;51293;59.296;18.006;2022-11-21T08:09:41;100438.53;;;-0.77;100.00
64835;BME280;51293;59.296;18.006;2022-11-21T08:12:08;100446.69;;;-0.71;100.00
64835;BME280;51293;59.296;18.006;2022-11-21T08:14:34;100441.03;;;-0.68;100.00
64835;BME280;51293;59.296;18.006;2022-11-21T08:16:59;100451.03;;;-0.62;100.00
64835;BME280;51293;59.296;18.006;2022-11-21T08:19:25;100451.03;;;-0.62;100.00
64835;BME280;51293;59.296;18.006;2022-11-21T08:21:50;100447.38;;;-0.61;100.00
64835;BME280;51293;59.296;18.006;2022-11-21T08:24:15;100446.72;;;-0.63;100.00
64835;BME280;51293;59.296;18.006;2022-11-21T08:26:45;100441.38;;;-0.63;100.00
64835;BME280;51293;59.296;18.006;2022-11-21T08:29:11;100450.69;;;-0.67;100.00
64835;BME280;51293;59.296;18.006;2022-11-21T08:31:37;100448.72;;;-0.65;100.00
64835;BME280;51293;59.296;18.006;2022-11-21T08:34:03;100447.34;;;-0.69;100.00
64835;BME280;51293;59.296;18.006;2022-11-21T08:36:28;100454.34;;;-0.68;100.00
64835;BME280;51293;59.296;18.006;2022-11-21T08:38:54;100459.66;;;-0.68;100.00
64835;BME280;51293;59.296;18.006;2022-11-21T08:41:19;100461.31;;;-0.67;100.00
64835;BME280;51293;59.296;18.006;2022-11-21T08:44:04;100464.66;;;-0.65;100.00
64835;BME280;51293;59.296;18.006;2022-11-21T08:46:30;100455.50;;;-0.70;100.00
64835;BME280;51293;59.296;18.006;2022-11-21T08:48:58;100458.16;;;-0.70;100.00
64835;BME280;51293;59.296;18.006;2022-11-21T08:51:23;100455.69;;;-0.64;100.00
64835;BME280;51293;59.296;18.006;2022-11-21T08:53:49;100456.69;;;-0.65;100.00
64835;BME280;51293;59.296;18.006;2022-11-21T08:56:15;100468.16;;;-0.72;100.00
64835;BME280;51293;59.296;18.006;2022-11-21T08:58:40;100463.31;;;-0.69;100.00
64835;BME280;51293;59.296;18.006;2022-11-21T09:01:05;100452.84;;;-0.70;100.00
64835;BME280;51293;59.296;18.006;2022-11-21T09:03:31;100456.34;;;-0.62;100.00
64835;BME280;51293;59.296;18.006;2022-11-21T09:05:57;100458.19;;;-0.62;100.00
64835;BME280;51293;59.296;18.006;2022-11-21T09:08:23;100452.34;;;-0.74;100.00
64835;BME280;51293;59.296;18.006;2022-11-21T09:10:48;100459.34;;;-0.73;100.00
64835;BME280;51293;59.296;18.006;2022-11-21T09:13:14;100465.78;;;-0.75;100.00
64835;BME280;51293;59.296;18.006;2022-11-21T09:15:39;100459.66;;;-0.68;100.00
64835;BME280;51293;59.296;18.006;2022-11-21T09:18:23;100469.13;;;-0.81;100.00
64835;BME280;51293;59.296;18.006;2022-11-21T09:20:49;100466.47;;;-0.81;100.00
64835;BME280;51293;59.296;18.006;2022-11-21T09:23:15;100464.28;;;-0.86;100.00
64835;BME280;51293;59.296;18.006;2022-11-21T09:25:41;100460.31;;;-0.82;100.00
64835;BME280;51293;59.296;18.006;2022-11-21T09:28:08;100457.13;;;-0.86;100.00
64835;BME280;51293;59.296;18.006;2022-11-21T09:30:34;100457.66;;;-0.82;100.00
64835;BME280;51293;59.296;18.006;2022-11-21T09:33:08;100455.66;;;-0.80;100.00
64835;BME280;51293;59.296;18.006;2022-11-21T09:35:34;100466.63;;;-0.75;100.00
64835;BME280;51293;59.296;18.006;2022-11-21T09:38:00;100456.00;;;-0.75;100.00
64835;BME280;51293;59.296;18.006;2022-11-21T09:40:30;100453.00;;;-0.80;100.00
64835;BME280;51293;59.296;18.006;2022-11-21T09:45:49;100452.19;;;-0.64;100.00
64835;BME280;51293;59.296;18.006;2022-11-21T09:48:23;100453.34;;;-0.67;100.00
64835;BME280;51293;59.296;18.006;2022-11-21T09:50:59;100457.69;;;-0.74;100.00
64835;BME280;51293;59.296;18.006;2022-11-21T09:53:32;100458.16;;;-0.70;100.00
64835;BME280;51293;59.296;18.006;2022-11-21T09:56:02;100459.00;;;-0.70;100.00
64835;BME280;51293;59.296;18.006;2022-11-21T10:00:56;100457.00;;;-0.68;100.00
64835;BME280;51293;59.296;18.006;2022-11-21T10:03:31;100455.03;;;-0.74;100.00
64835;BME280;51293;59.296;18.006;2022-11-21T10:06:03;100448.00;;;-0.75;100.00
64835;BME280;51293;59.296;18.006;2022-11-21T10:11:20;100448.34;;;-0.70;100.00
64835;BME280;51293;59.296;18.006;2022-11-21T10:14:12;100445.34;;;-0.75;100.00
64835;BME280;51293;59.296;18.006;2022-11-21T10:16:48;100436.72;;;-0.77;100.00
64835;BME280;51293;59.296;18.006;2022-11-21T10:25:13;100447.53;;;-0.70;100.00
64835;BME280;51293;59.296;18.006;2022-11-21T10:27:52;100442.84;;;-0.76;100.00
64835;BME280;51293;59.296;18.006;2022-11-21T10:30:20;100439.53;;;-0.78;100.00
64835;BME280;51293;59.296;18.006;2022-11-21T10:32:57;100439.22;;;-0.67;100.00
64835;BME280;51293;59.296;18.006;2022-11-21T10:35:35;100438.72;;;-0.63;100.00
64835;BME280;51293;59.296;18.006;2022-11-21T10:38:14;100433.06;;;-0.68;100.00
64835;BME280;51293;59.296;18.006;2022-11-21T10:45:59;100417.59;;;-0.89;100.00
64835;BME280;51293;59.296;18.006;2022-11-21T10:48:24;100424.91;;;-0.91;100.00
64835;BME280;51293;59.296;18.006;2022-11-21T10:51:07;100422.91;;;-0.97;100.00
64835;BME280;51293;59.296;18.006;2022-11-21T10:53:34;100427.06;;;-0.86;100.00
64835;BME280;51293;59.296;18.006;2022-11-21T10:56:20;100425.06;;;-0.92;100.00
64835;BME280;51293;59.296;18.006;2022-11-21T10:58:54;100419.06;;;-0.94;100.00
64835;BME280;51293;59.296;18.006;2022-11-21T11:01:28;100422.91;;;-0.97;100.00
64835;BME280;51293;59.296;18.006;2022-11-21T11:04:15;100418.44;;;-0.88;100.00
64835;BME280;51293;59.296;18.006;2022-11-21T11:06:44;100412.94;;;-0.87;100.00
64835;BME280;51293;59.296;18.006;2022-11-21T11:09:28;100431.22;;;-0.83;100.00
64835;BME280;51293;59.296;18.006;2022-11-21T11:12:30;100421.75;;;-0.86;100.00
64835;BME280;51293;59.296;18.006;2022-11-21T11:15:22;100423.94;;;-0.81;100.00
64835;BME280;51293;59.296;18.006;2022-11-21T11:18:01;100410.09;;;-0.85;100.00
64835;BME280;51293;59.296;18.006;2022-11-21T11:23:23;100409.78;;;-0.82;100.00
64835;BME280;51293;59.296;18.006;2022-11-21T11:25:55;100402.66;;;-0.81;100.00
64835;BME280;51293;59.296;18.006;2022-11-21T11:28:22;100398.47;;;-0.76;100.00
64835;BME280;51293;59.296;18.006;2022-11-21T11:30:53;100399.47;;;-0.69;100.00
64835;BME280;51293;59.296;18.006;2022-11-21T11:33:39;100392.84;;;-0.65;100.00
64835;BME280;51293;59.296;18.006;2022-11-21T11:36:15;100384.69;;;-0.55;100.00
64835;BME280;51293;59.296;18.006;2022-11-21T11:39:07;100386.53;;;-0.55;100.00
64835;BME280;51293;59.296;18.006;2022-11-21T11:47:54;100384.69;;;-0.55;100.00
64835;BME280;51293;59.296;18.006;2022-11-21T11:50:27;100386.69;;;-0.57;100.00
64835;BME280;51293;59.296;18.006;2022-11-21T11:53:00;100390.19;;;-0.57;100.00
64835;BME280;51293;59.296;18.006;2022-11-21T11:55:36;100386.53;;;-0.55;100.00
64835;BME280;51293;59.296;18.006;2022-11-21T11:58:09;100382.03;;;-0.55;100.00
64835;BME280;51293;59.296;18.006;2022-11-21T12:00:56;100382.03;;;-0.47;100.00
64835;BME280;51293;59.296;18.006;2022-11-21T12:06:17;100380.69;;;-0.51;100.00
64835;BME280;51293;59.296;18.006;2022-11-21T12:08:52;100367.75;;;-0.62;100.00
64835;BME280;51293;59.296;18.006;2022-11-21T12:11:22;100380.69;;;-0.51;100.00
64835;BME280;51293;59.296;18.006;2022-11-21T12:14:17;100377.19;;;-0.51;100.00
64835;BME280;51293;59.296;18.006;2022-11-21T12:17:07;100376.38;;;-0.52;100.00
64835;BME280;51293;59.296;18.006;2022-11-21T12:19:35;100380.84;;;-0.44;100.00
64835;BME280;51293;59.296;18.006;2022-11-21T12:22:02;100368.72;;;-0.39;100.00
64835;BME280;51293;59.296;18.006;2022-11-21T12:24:31;100383.84;;;-0.39;100.00
64835;BME280;51293;59.296;18.006;2022-11-21T12:35:03;100366.25;;;-0.57;100.00
64835;BME280;51293;59.296;18.006;2022-11-21T12:37:50;100362.41;;;-0.62;100.00
64835;BME280;51293;59.296;18.006;2022-11-21T12:40:28;100362.41;;;-0.54;100.00
64835;BME280;51293;59.296;18.006;2022-11-21T12:45:35;100358.75;;;-0.53;100.00
64835;BME280;51293;59.296;18.006;2022-11-21T12:48:23;100359.94;;;-0.55;100.00
64835;BME280;51293;59.296;18.006;2022-11-21T12:57:16;100360.91;;;-0.32;100.00
64835;BME280;51293;59.296;18.006;2022-11-21T13:05:29;100358.88;;;-0.30;100.00
64835;BME280;51293;59.296;18.006;2022-11-21T13:08:23;100351.09;;;-0.32;100.00
64835;BME280;51293;59.296;18.006;2022-11-21T13:13:38;100342.06;;;-0.14;100.00
64835;BME280;51293;59.296;18.006;2022-11-21T13:16:09;100339.22;;;-0.13;100.00
64835;BME280;51293;59.296;18.006;2022-11-21T13:18:45;100336.34;;;-0.03;100.00
64835;BME280;51293;59.296;18.006;2022-11-21T13:21:43;100335.53;;;-0.04;100.00
64835;BME280;51293;59.296;18.006;2022-11-21T13:24:09;100335.53;;;-0.04;100.00
64835;BME280;51293;59.296;18.006;2022-11-21T13:31:33;100329.06;;;-0.17;100.00
64835;BME280;51293;59.296;18.006;2022-11-21T13:34:00;100329.91;;;-0.17;100.00
64835;BME280;51293;59.296;18.006;2022-11-21T13:44:45;100332.44;;;-0.23;100.00
64835;BME280;51293;59.296;18.006;2022-11-21T13:49:51;100329.63;;;-0.38;100.00
64835;BME280;51293;59.296;18.006;2022-11-21T14:00:09;100331.63;;;-0.40;100.00
64835;BME280;51293;59.296;18.006;2022-11-21T14:08:26;100325.50;;;-0.57;100.00
64835;BME280;51293;59.296;18.006;2022-11-21T14:10:54;100332.50;;;-0.56;100.00
64835;BME280;51293;59.296;18.006;2022-11-21T14:13:40;100343.31;;;-0.58;100.00